Time;durP1;ratioP1;P1;durP2;ratioP2;P2;SDS_P1;SDS_P2;PMS_P1;PMS_P2;Temp;Humidity;BMP_temperature;BMP_pressure;BME280_temperature;BME280_humidity;BME280_pressure;Samples;Min_cycle;Max_cycle;Signal;HPM_P1;HPM_P2
2022/06/17 03:55:41;;;;;;;5.80;4.38;;;14.60;1.00;;;14.05;100.00;99214.09;5063459;27;102524;-69
2022/06/17 03:58:15;;;;;;;6.78;4.45;;;14.40;1.00;;;14.38;100.00;99213.94;5036114;27;113629;-69
2022/06/17 04:00:58;;;;;;;8.20;4.35;;;14.50;1.00;;;14.68;100.00;99202.78;5055490;27;129574;-69
2022/06/17 04:03:30;;;;;;;5.90;4.50;;;14.50;1.00;;;14.95;100.00;99212.13;5035711;27;129424;-70
2022/06/17 04:06:06;;;;;;;6.18;4.50;;;14.60;1.00;;;15.13;100.00;99214.56;5073206;27;118898;-69
2022/06/17 04:08:55;;;;;;;7.82;4.82;;;14.60;1.00;;;15.25;100.00;99223.50;5035880;27;113314;-70
2022/06/17 04:11:29;;;;;;;6.22;4.55;;;14.60;1.00;;;15.38;100.00;99210.56;5055562;27;129664;-71
2022/06/17 04:14:03;;;;;;;6.50;4.35;;;14.60;1.00;;;15.45;100.00;99227.13;5038887;27;128675;-70
2022/06/17 04:16:42;;;;;;;5.85;4.15;;;14.60;1.00;;;15.54;100.00;99220.72;5038709;27;118864;-71
2022/06/17 04:19:18;;;;;;;6.00;4.57;;;14.60;1.00;;;15.50;100.00;99225.31;5052814;27;113961;-71
2022/06/17 04:21:59;;;;;;;7.00;4.65;;;14.60;1.00;;;15.53;100.00;99222.66;5038488;27;129288;-71
2022/06/17 04:24:31;;;;;;;7.00;4.50;;;14.60;1.00;;;15.53;99.29;99225.38;5035299;27;131006;-73
2022/06/17 04:27:15;;;;;;;7.43;4.82;;;14.60;1.00;;;15.55;98.74;99222.28;5036967;27;119431;-70
2022/06/17 04:29:50;;;;;;;7.28;4.70;;;14.60;1.00;;;15.61;98.60;99220.88;5057854;27;113781;-71
2022/06/17 04:32:25;;;;;;;8.20;4.90;;;14.60;1.00;;;15.61;97.89;99223.63;5032683;27;128769;-71
2022/06/17 04:34:55;;;;;;;6.53;4.80;;;14.60;1.00;;;15.63;98.75;99224.09;5022040;27;130071;-71
2022/06/17 04:37:24;;;;;;;8.32;5.00;;;14.60;1.00;;;15.58;98.78;99221.59;5026568;27;119433;-72
2022/06/17 04:40:24;;;;;;;7.18;4.25;;;14.50;1.00;;;15.42;98.36;99225.09;5037670;27;112576;-74
2022/06/17 04:43:32;;;;;;;7.00;4.32;;;14.40;1.00;;;15.32;98.23;99225.63;5029736;27;131166;-73
2022/06/17 04:46:14;;;;;;;5.97;3.85;;;14.30;1.00;;;15.31;98.20;99229.50;5021097;27;128134;-73
2022/06/17 04:48:44;;;;;;;5.07;3.90;;;14.30;1.00;;;15.25;97.94;99225.44;5031570;27;118717;-73
2022/06/17 04:51:13;;;;;;;6.72;4.20;;;14.20;1.00;;;15.26;98.72;99224.28;5042546;27;113722;-71
2022/06/17 04:53:46;;;;;;;7.10;4.20;;;14.40;1.00;;;15.33;99.02;99229.94;5041756;27;129596;-73
2022/06/17 04:56:46;;;;;;;6.65;4.20;;;14.30;1.00;;;15.45;100.00;99224.41;5038195;27;130668;-71
2022/06/17 04:59:32;;;;;;;6.25;4.50;;;14.40;1.00;;;15.64;100.00;99212.78;5034818;27;119296;-74
2022/06/17 05:02:03;;;;;;;6.32;4.47;;;14.50;1.00;;;15.89;100.00;99214.56;5034568;27;113370;-72
2022/06/17 05:05:01;;;;;;;7.15;4.90;;;14.60;1.00;;;16.13;98.17;99211.66;5042631;27;131497;-72
2022/06/17 05:07:34;;;;;;;7.13;4.28;;;14.60;1.00;;;16.31;97.36;99213.97;5022350;28;130824;-74
2022/06/17 05:10:08;;;;;;;5.57;3.80;;;14.80;1.00;;;16.54;92.49;99209.41;5024305;28;119133;-73
2022/06/17 05:12:43;;;;;;;5.25;3.25;;;14.70;1.00;;;16.69;89.43;99212.47;5020543;28;114264;-73
2022/06/17 05:15:17;;;;;;;4.85;3.20;;;14.70;1.00;;;16.82;89.06;99219.38;5057205;27;129864;-73
2022/06/17 05:17:46;;;;;;;6.40;3.10;;;14.80;1.00;;;17.13;87.91;99220.41;5039957;27;128712;-72
2022/06/17 05:20:18;;;;;;;5.05;3.22;;;15.10;1.00;;;17.33;87.43;99212.97;4998442;28;117974;-75
2022/06/17 05:22:54;;;;;;;6.30;3.15;;;15.10;1.00;;;17.55;86.96;99225.13;5017866;28;113716;-70
2022/06/17 05:25:27;;;;;;;4.95;3.28;;;15.30;1.00;;;17.78;86.53;99221.59;5036958;27;130071;-71
2022/06/17 05:27:56;;;;;;;4.30;2.97;;;15.60;1.00;;;17.85;84.44;99216.19;5020317;28;130116;-71
2022/06/17 05:30:28;;;;;;;4.95;3.28;;;15.40;1.00;;;17.80;83.56;99213.78;5020691;28;119112;-71
2022/06/17 05:32:57;;;;;;;4.85;3.40;;;15.30;1.00;;;18.12;83.48;99216.25;5021312;27;114181;-73
2022/06/17 05:35:27;;;;;;;4.93;3.30;;;15.60;1.00;;;18.38;82.51;99218.22;5005002;28;129378;-72
2022/06/17 05:37:55;;;;;;;4.18;2.60;;;15.60;1.00;;;18.56;78.04;99215.72;5022351;28;129609;-73
2022/06/17 05:40:26;;;;;;;4.07;2.13;;;15.70;1.00;;;18.59;77.05;99214.97;5020703;28;119499;-73
2022/06/17 05:42:58;;;;;;;6.80;2.65;;;15.60;1.00;;;19.16;75.46;99225.09;5023939;28;114124;-74
2022/06/17 05:45:29;;;;;;;4.07;2.30;;;16.20;1.00;;;19.20;71.82;99223.19;5037362;27;130754;-71
2022/06/17 05:48:29;;;;;;;4.50;2.35;;;16.10;1.00;;;19.27;71.13;99220.50;5037186;27;129519;-71
2022/06/17 05:51:07;;;;;;;3.78;2.15;;;16.40;99.90;;;19.47;72.84;99212.06;5040478;27;118388;-72
2022/06/17 05:53:58;;;;;;;4.00;2.20;;;16.70;1.00;;;19.74;70.08;99210.75;5022545;27;113446;-72
2022/06/17 05:56:34;;;;;;;3.28;2.10;;;16.90;99.90;;;19.84;68.65;99206.53;5019900;28;131400;-71
2022/06/17 05:59:03;;;;;;;4.07;1.90;;;17.00;99.90;;;20.00;67.30;99205.47;5040579;27;129506;-70
2022/06/17 06:01:34;;;;;;;4.03;2.10;;;17.10;99.90;;;19.38;69.51;99210.41;5036853;27;119181;-70
2022/06/17 06:04:03;;;;;;;3.92;2.15;;;16.90;99.90;;;19.09;69.69;99208.50;5037358;27;113401;-72
2022/06/17 06:06:32;;;;;;;4.43;2.53;;;16.80;99.90;;;19.15;70.66;99212.50;5037067;27;130154;-69
2022/06/17 06:09:01;;;;;;;4.80;2.80;;;16.50;99.90;;;19.42;70.67;99209.66;5019794;28;130367;-71
2022/06/17 06:11:30;;;;;;;4.95;2.22;;;16.60;99.90;;;19.52;69.80;99214.47;5040714;27;118768;-69
2022/06/17 06:13:59;;;;;;;5.25;2.60;;;16.70;99.90;;;18.98;71.49;99209.19;5020656;28;114071;-69
2022/06/17 06:16:27;;;;;;;3.90;2.10;;;16.60;99.90;;;18.66;74.06;99198.56;5039449;27;129689;-71
2022/06/17 06:19:00;;;;;;;3.95;2.30;;;16.60;99.90;;;18.36;73.19;99203.28;5019409;28;129227;-69
2022/06/17 06:21:29;;;;;;;5.82;2.50;;;16.40;99.90;;;17.78;77.10;99205.13;5040384;27;118566;-71
2022/06/17 06:23:58;;;;;;;4.95;2.67;;;16.30;99.90;;;17.63;80.41;99198.59;5020908;28;113967;-70
2022/06/17 06:26:35;;;;;;;4.22;2.67;;;16.20;1.00;;;17.56;82.15;99193.78;5022788;28;129337;-70
2022/06/17 06:29:26;;;;;;;4.68;2.95;;;16.20;1.00;;;18.03;80.53;99196.50;5023112;28;128850;-71
2022/06/17 06:31:57;;;;;;;4.40;2.55;;;16.60;1.00;;;18.47;78.45;99199.50;5006811;28;118155;-70
2022/06/17 06:34:36;;;;;;;5.85;3.22;;;16.80;1.00;;;18.50;78.89;99200.72;5021530;28;113787;-71
2022/06/17 06:37:05;;;;;;;6.72;3.53;;;16.90;1.00;;;17.94;79.72;99192.06;5039491;27;129173;-69
2022/06/17 06:39:35;;;;;;;4.90;2.78;;;16.50;1.00;;;17.93;82.01;99200.66;5019556;28;129481;-69
2022/06/17 06:42:04;;;;;;;5.43;3.05;;;16.60;1.00;;;17.88;83.50;99199.03;5021239;28;119371;-72
2022/06/17 06:44:35;;;;;;;5.18;2.88;;;16.80;1.00;;;18.04;82.00;99196.13;5037508;27;113734;-70
2022/06/17 06:47:04;;;;;;;4.38;2.95;;;16.70;1.00;;;17.60;83.82;99200.09;5020507;28;129990;-69
2022/06/17 06:50:18;;;;;;;4.03;2.80;;;16.50;1.00;;;17.74;83.52;99198.78;5014713;27;129984;-70
2022/06/17 06:52:46;;;;;;;6.18;3.13;;;16.80;1.00;;;17.91;83.07;99195.53;5021098;28;119146;-71
2022/06/17 06:55:16;;;;;;;6.30;3.10;;;16.90;1.00;;;18.92;78.79;99207.16;5022437;28;112452;-71
2022/06/17 06:57:53;;;;;;;3.50;2.22;;;17.50;99.90;;;19.72;70.67;99210.31;5036363;27;132871;-72
2022/06/17 07:00:25;;;;;;;4.72;2.65;;;17.50;99.90;;;19.99;69.00;99204.69;5039193;27;129518;-71
2022/06/17 07:02:54;;;;;;;5.97;2.17;;;17.20;99.90;;;19.88;69.72;99207.34;5039759;27;118794;-69
2022/06/17 07:05:25;;;;;;;3.60;2.25;;;16.90;99.90;;;19.75;66.89;99212.31;5019920;28;113638;-71
2022/06/17 07:07:56;;;;;;;5.40;3.25;;;17.20;99.90;;;19.58;69.43;99208.22;5022528;28;130356;-72
2022/06/17 07:10:30;;;;;;;3.85;2.00;;;17.70;99.90;;;20.50;65.63;99210.50;5021487;28;129352;-73
2022/06/17 07:12:59;;;;;;;4.53;2.30;;;18.20;99.90;;;20.77;65.81;99203.56;5020931;28;119447;-72
2022/06/17 07:15:29;;;;;;;6.35;2.28;;;18.40;99.90;;;21.16;59.83;99218.66;5019625;28;113434;-71
2022/06/17 07:18:00;;;;;;;3.20;1.90;;;18.10;99.90;;;21.56;60.17;99213.28;5020364;28;129819;-70
2022/06/17 07:20:36;;;;;;;5.43;2.67;;;18.50;99.90;;;20.06;64.89;99215.72;5022486;28;128382;-70
2022/06/17 07:23:05;;;;;;;;;;;17.90;99.90;;;19.58;67.47;99210.19;5021467;28;119304;-71
2022/06/17 07:25:35;;;;;;;4.43;2.25;;;17.90;99.90;;;20.29;65.76;99217.47;5020729;28;113909;-69
2022/06/17 07:28:06;;;;;;;6.90;2.50;;;18.20;99.90;;;20.59;64.86;99219.22;5019950;27;129799;-72
2022/06/17 07:30:35;;;;;;;4.78;2.30;;;17.90;99.90;;;21.19;62.41;99215.13;5020271;28;130279;-70
2022/06/17 07:33:04;;;;;;;7.72;2.60;;;18.30;99.90;;;21.67;58.85;99220.38;5020833;28;119264;-73
2022/06/17 07:35:34;;;;;;;8.20;2.63;;;18.30;99.90;;;21.30;56.76;99223.44;5020944;28;114277;-71
2022/06/17 07:40:49;;;;;;;5.50;2.40;;;18.70;99.90;;;21.64;55.08;99225.88;5020372;28;129808;-72
2022/06/17 07:43:18;;;;;;;4.15;2.17;;;18.10;99.90;;;21.41;57.87;99227.03;5021044;28;119435;-70
2022/06/17 07:45:47;;;;;;;6.28;2.20;;;18.00;99.90;;;21.20;58.54;99225.00;5021059;28;113825;-71
2022/06/17 07:48:18;;;;;;;8.63;2.75;;;17.80;99.90;;;21.10;58.89;99221.03;5024107;28;130405;-71
2022/06/17 07:50:48;;;;;;;8.85;2.40;;;18.00;99.90;;;21.18;60.03;99217.09;5023920;28;128076;-71
2022/06/17 07:53:18;;;;;;;4.68;1.88;;;18.20;99.90;;;21.33;58.85;99217.94;5024119;28;118111;-71
2022/06/17 07:55:48;;;;;;;3.70;2.28;;;18.50;99.90;;;21.36;56.67;99228.19;5022890;28;113605;-72
2022/06/17 07:58:16;;;;;;;5.93;2.17;;;18.20;99.90;;;21.31;56.88;99219.50;5022508;28;129898;-71
2022/06/17 08:00:47;;;;;;;5.30;2.30;;;18.20;99.90;;;21.49;55.76;99220.34;5020944;28;129591;-74
2022/06/17 08:03:18;;;;;;;3.65;2.17;;;18.40;99.90;;;21.77;56.25;99210.53;5020150;28;119364;-72
2022/06/17 08:05:51;;;;;;;6.20;2.28;;;19.10;99.90;;;22.01;53.58;99219.97;5020323;28;113468;-72
2022/06/17 08:08:22;;;;;;;6.38;2.30;;;18.70;99.90;;;22.10;55.77;99203.00;5019810;28;130034;-70
2022/06/17 08:10:54;;;;;;;6.95;2.67;;;18.90;99.90;;;22.45;52.24;99217.97;5020194;28;129542;-72
2022/06/17 08:13:23;;;;;;;7.18;2.30;;;19.30;99.90;;;22.72;53.04;99204.47;5019735;28;119278;-75
2022/06/17 08:15:57;;;;;;;5.38;2.30;;;19.50;99.90;;;22.80;49.16;99211.53;5019862;28;115167;-71
2022/06/17 08:18:26;;;;;;;3.92;2.05;;;18.70;99.90;;;22.46;50.06;99197.44;5017738;28;130735;-72
2022/06/17 08:20:57;;;;;;;3.72;2.13;;;19.20;99.90;;;22.77;49.26;99209.56;5032400;27;130280;-72
2022/06/17 08:23:26;;;;;;;3.42;1.83;;;19.20;99.90;;;22.89;47.99;99213.88;5041572;27;118055;-75
2022/06/17 08:25:57;;;;;;;4.65;2.17;;;18.70;99.90;;;22.66;51.26;99210.78;5033017;27;115710;-73
2022/06/17 08:28:26;;;;;;;3.17;1.83;;;19.00;99.90;;;22.99;49.63;99209.47;5018123;27;130630;-75
2022/06/17 08:30:56;;;;;;;8.80;2.20;;;19.30;99.90;;;23.43;50.44;99212.81;5018277;27;129006;-73
2022/06/17 08:33:29;;;;;;;7.00;2.50;;;19.60;99.90;;;23.99;47.85;99216.34;5035292;27;118903;-70
2022/06/17 08:36:08;;;;;;;6.40;2.00;;;19.70;99.90;;;23.95;48.62;99210.09;5021523;28;114602;-71
2022/06/17 08:38:42;;;;;;;5.32;2.13;;;20.40;99.90;;;23.23;49.10;99209.78;5019000;28;129866;-72
2022/06/17 08:41:26;;;;;;;5.40;2.30;;;20.20;99.90;;;22.02;50.78;99218.03;5020743;27;129424;-74
2022/06/17 08:44:29;;;;;;;5.43;2.30;;;18.30;99.90;;;20.96;54.94;99229.25;5022714;28;120265;-72
2022/06/17 08:47:31;;;;;;;7.82;2.42;;;18.20;99.90;;;20.46;56.49;99227.81;5022722;28;115000;-73
2022/06/17 08:50:32;;;;;;;4.10;2.00;;;18.10;99.90;;;20.22;57.11;99236.69;5025085;27;130041;-72
2022/06/17 08:53:44;;;;;;;6.13;2.17;;;18.10;99.90;;;20.02;56.90;99233.41;5023834;28;129306;-72
2022/06/17 08:56:22;;;;;;;4.78;2.20;;;18.00;99.90;;;20.13;58.35;99234.28;5020771;28;119362;-73
2022/06/17 08:59:08;;;;;;;4.80;1.90;;;17.90;99.90;;;20.02;59.04;99236.94;5022013;28;115314;-74
2022/06/17 09:01:47;;;;;;;6.25;2.33;;;18.00;99.90;;;20.00;60.92;99244.81;5021634;28;130436;-73
2022/06/17 09:04:35;;;;;;;5.22;2.60;;;17.90;99.90;;;19.90;61.93;99234.50;5021929;28;129660;-76
2022/06/17 09:07:18;;;;;;;7.97;2.90;;;18.00;99.90;;;19.82;63.52;99244.66;5016934;28;118167;-71
2022/06/17 09:10:10;;;;;;;3.88;2.10;;;17.70;99.90;;;19.67;64.34;99254.72;5033757;27;114823;-72
2022/06/17 09:12:54;;;;;;;8.40;3.00;;;17.80;99.90;;;19.71;65.29;99244.53;5025411;28;128896;-74
2022/06/17 09:15:37;;;;;;;6.80;2.75;;;17.90;99.90;;;19.60;63.82;99243.63;5031743;28;130183;-74
2022/06/17 09:18:19;;;;;;;8.65;2.60;;;17.50;99.90;;;19.57;65.14;99247.94;5030953;28;119041;-74
2022/06/17 09:20:54;;;;;;;6.28;2.42;;;17.60;99.90;;;19.58;64.12;99251.47;5023226;28;116933;-71
2022/06/17 09:23:27;;;;;;;4.72;2.65;;;17.50;99.90;;;19.61;64.04;99245.22;5022017;28;130113;-73
2022/06/17 09:25:59;;;;;;;9.00;2.67;;;17.50;99.90;;;19.77;64.37;99247.75;5004804;28;129536;-78
2022/06/17 09:28:35;;;;;;;5.20;2.45;;;17.50;99.90;;;19.84;63.77;99247.81;5020079;28;119729;-74
2022/06/17 09:31:13;;;;;;;6.45;2.45;;;17.60;99.90;;;20.15;62.66;99251.22;5020459;28;115218;-73
2022/06/17 09:33:50;;;;;;;5.32;2.05;;;17.50;99.90;;;20.41;61.09;99246.66;5021858;28;130327;-71
2022/06/17 09:36:25;;;;;;;5.82;2.30;;;17.70;99.90;;;20.74;60.72;99256.75;5021763;28;129554;-72
2022/06/17 09:39:01;;;;;;;7.97;2.65;;;18.10;99.90;;;21.10;58.85;99243.09;5021275;28;118793;-71
2022/06/17 09:41:40;;;;;;;5.82;2.63;;;18.50;99.90;;;21.52;57.73;99235.34;5023932;28;114134;-72
2022/06/17 09:44:14;;;;;;;6.68;3.00;;;18.90;99.90;;;21.82;56.02;99240.50;5021286;28;130088;-72
2022/06/17 09:46:48;;;;;;;3.50;2.13;;;18.80;99.90;;;21.95;54.71;99237.34;5024927;28;128540;-72
2022/06/17 09:49:23;;;;;;;5.10;2.10;;;18.80;99.90;;;21.90;54.73;99241.31;5026093;28;120572;-72
2022/06/17 09:51:59;;;;;;;4.05;2.10;;;18.90;99.90;;;21.99;54.40;99235.38;5025720;27;114736;-70
2022/06/17 09:54:32;;;;;;;;;;;19.10;99.90;;;21.39;57.28;99237.66;5026017;28;130391;-71
2022/06/17 09:57:09;;;;;;;4.20;1.95;;;19.60;99.90;;;21.30;56.12;99238.03;5023525;28;129730;-71
2022/06/17 09:59:43;;;;;;;3.80;1.70;;;19.50;99.90;;;21.21;55.68;99242.34;5021912;28;118862;-73
2022/06/17 10:02:23;;;;;;;3.05;1.65;;;19.30;99.90;;;21.84;57.06;99234.59;5022080;28;115268;-72
2022/06/17 10:04:53;;;;;;;5.25;2.22;;;20.00;99.90;;;22.89;53.06;99246.28;5021256;28;129921;-75
2022/06/17 10:07:45;;;;;;;8.85;2.53;;;19.60;99.90;;;22.53;52.69;99240.84;5021617;28;129227;-71
2022/06/17 10:10:27;;;;;;;5.55;2.17;;;18.90;99.90;;;21.64;54.10;99242.47;5023270;28;117796;-72
2022/06/17 10:13:13;;;;;;;5.43;2.08;;;18.20;99.90;;;21.42;56.74;99231.34;5023321;28;114991;-71
2022/06/17 10:18:49;;;;;;;7.50;2.25;;;18.70;99.90;;;21.46;55.21;99226.63;5021613;28;129879;-71
2022/06/17 10:21:34;;;;;;;5.55;2.47;;;18.50;99.90;;;21.15;55.83;99228.91;5021104;28;119401;-72
2022/06/17 10:24:15;;;;;;;6.18;2.17;;;18.30;99.90;;;21.05;58.50;99229.69;5021408;28;115546;-71
2022/06/17 10:27:11;;;;;;;6.85;2.35;;;18.50;99.90;;;20.83;57.41;99224.09;5019213;28;130344;-71
2022/06/17 10:30:06;;;;;;;10.02;1.90;;;18.30;99.90;;;21.12;57.14;99207.63;5020983;28;129905;-70
2022/06/17 10:32:39;;;;;;;5.72;2.20;;;18.60;99.90;;;21.68;55.10;99208.16;5021268;28;119047;-72
2022/06/17 10:35:16;;;;;;;8.57;2.38;;;19.00;99.90;;;21.54;54.31;99206.16;5021100;28;115128;-72
2022/06/17 10:37:45;;;;;;;4.88;2.25;;;18.80;99.90;;;21.99;53.84;99218.81;5022501;28;129478;-73
2022/06/17 10:40:21;;;;;;;6.10;2.22;;;19.00;99.90;;;22.35;52.43;99208.50;5020563;28;130446;-72
2022/06/17 10:42:51;;;;;;;2.92;1.75;;;19.40;99.90;;;22.49;50.71;99210.47;5020856;28;119355;-69
2022/06/17 10:45:21;;;;;;;7.25;2.10;;;19.40;99.90;;;23.37;48.74;99195.84;5021011;28;115181;-72
2022/06/17 10:47:56;;;;;;;10.23;2.15;;;20.20;99.90;;;23.87;47.51;99191.94;5020297;28;130014;-73
2022/06/17 10:50:28;;;;;;;3.65;1.80;;;20.40;99.90;;;24.12;47.78;99202.00;5020653;28;130189;-71
2022/06/17 10:53:04;;;;;;;5.40;2.20;;;21.30;99.90;;;24.16;44.81;99202.75;5053590;27;119328;-71
2022/06/17 10:55:38;;;;;;;5.10;1.93;;;20.70;99.90;;;24.03;45.78;99200.50;5023990;28;115139;-72
2022/06/17 10:58:16;;;;;;;5.07;1.70;;;20.70;99.90;;;24.38;47.68;99193.00;5020880;28;129942;-74
2022/06/17 11:00:56;;;;;;;5.97;2.45;;;21.20;99.90;;;24.39;46.05;99193.81;5022444;28;128771;-71
2022/06/17 11:03:32;;;;;;;4.53;2.38;;;20.80;99.90;;;24.54;46.00;99206.31;5020311;28;119504;-74
2022/06/17 11:06:15;;;;;;;4.22;2.08;;;20.70;99.90;;;24.23;47.71;99189.63;5022721;28;115008;-71
2022/06/17 11:08:56;;;;;;;7.82;2.40;;;20.50;99.90;;;24.41;47.86;99186.63;5020247;28;130079;-75
2022/06/17 11:12:04;;;;;;;4.97;2.40;;;20.60;99.90;;;24.61;46.07;99199.94;5020253;28;129494;-72
2022/06/17 11:14:40;;;;;;;5.55;2.13;;;20.60;99.90;;;25.06;44.69;99196.19;5020529;28;118515;-73
2022/06/17 11:17:22;;;;;;;4.18;2.05;;;20.70;99.90;;;25.57;44.98;99191.50;5021048;28;115458;-73
2022/06/17 11:19:55;;;;;;;7.10;2.03;;;21.40;99.90;;;26.03;44.64;99194.75;5020601;28;130189;-72
2022/06/17 11:22:36;;;;;;;4.60;2.35;;;22.00;99.90;;;25.01;43.67;99205.78;5021171;28;129166;-73
2022/06/17 11:25:20;;;;;;;12.38;3.42;;;20.80;99.90;;;23.63;48.65;99219.41;5022052;28;117931;-71
2022/06/17 11:27:59;;;;;;;7.90;2.92;;;20.10;99.90;;;19.75;74.35;99234.34;5020273;28;115309;-72
2022/06/17 11:30:34;;;;;;;7.82;3.17;;;17.40;1.00;;;18.22;87.93;99234.84;5019915;28;129819;-76
2022/06/17 11:33:04;;;;;;;6.40;3.53;;;16.70;1.00;;;18.33;91.64;99235.81;5021716;28;128671;-74
2022/06/17 11:35:40;;;;;;;7.22;3.47;;;17.00;1.00;;;18.08;90.64;99223.66;5020493;28;119099;-72
2022/06/17 11:38:14;;;;;;;7.60;3.60;;;17.00;1.00;;;18.08;95.31;99226.41;5020274;28;115400;-76
2022/06/17 11:40:55;;;;;;;6.32;3.38;;;17.20;1.00;;;18.45;93.16;99231.25;5019630;28;129832;-75
2022/06/17 11:43:33;;;;;;;6.88;3.65;;;17.30;1.00;;;18.91;90.36;99231.09;5019784;28;129857;-75
2022/06/17 11:46:09;;;;;;;9.43;3.42;;;17.70;1.00;;;19.32;88.31;99233.13;5020001;28;119052;-75
2022/06/17 11:48:44;;;;;;;4.93;3.03;;;17.90;1.00;;;19.15;82.98;99246.31;5019345;28;116275;-76
2022/06/17 11:51:16;;;;;;;5.88;2.97;;;17.70;1.00;;;18.86;89.01;99245.19;5019697;28;130468;-72
2022/06/17 11:53:49;;;;;;;7.03;2.63;;;17.60;1.00;;;18.60;85.98;99254.22;5019920;28;130224;-74
2022/06/17 11:56:37;;;;;;;4.88;2.85;;;17.10;1.00;;;18.72;87.30;99248.50;5019837;28;119245;-72
2022/06/17 11:59:15;;;;;;;5.47;2.83;;;17.30;1.00;;;19.13;80.79;99254.13;5020110;28;115701;-73
2022/06/17 12:01:50;;;;;;;6.90;2.60;;;17.60;1.00;;;19.44;79.83;99254.09;5019535;28;130753;-73
2022/06/17 12:04:42;;;;;;;5.30;2.70;;;17.90;1.00;;;20.48;72.85;99253.00;5019572;28;131247;-72
2022/06/17 12:07:49;;;;;;;4.43;2.20;;;18.70;99.90;;;21.08;68.41;99250.97;5019788;28;118783;-70
2022/06/17 12:10:46;;;;;;;4.80;2.05;;;19.10;99.90;;;21.65;66.19;99244.03;5019709;28;115141;-71
2022/06/17 12:13:24;;;;;;;;;;;19.60;99.90;;;21.59;65.76;99237.34;5019556;28;130670;-71
2022/06/17 12:15:58;;;;;;;6.75;2.03;;;19.70;99.90;;;21.97;61.19;99238.53;5020629;27;129598;-72
2022/06/17 12:18:34;;;;;;;5.40;2.10;;;19.70;99.90;;;21.25;62.85;99245.91;5023095;28;118689;-71
2022/06/17 12:21:20;;;;;;;;;;;19.00;99.90;;;20.87;68.33;99245.38;5025608;28;114306;-71
2022/06/17 12:23:55;;;;;;;4.43;2.17;;;19.00;99.90;;;20.31;66.91;99259.19;5023970;28;129354;-71
2022/06/17 12:26:31;;;;;;;4.75;2.63;;;18.40;99.90;;;20.30;73.01;99252.09;5022872;28;130217;-76
2022/06/17 12:29:02;;;;;;;;;;;18.60;99.90;;;20.28;79.87;99246.19;5023444;28;119566;-78
2022/06/17 12:31:43;;;;;;;4.82;2.70;;;18.60;1.00;;;20.15;73.36;99255.91;5023387;28;114744;-77
2022/06/17 12:34:28;;;;;;;4.43;2.80;;;18.00;99.90;;;20.07;74.29;99258.63;5024727;28;129367;-79
2022/06/17 12:37:03;;;;;;;4.57;2.50;;;18.10;99.90;;;19.71;81.78;99250.03;5024260;28;129157;-79
2022/06/17 12:39:39;;;;;;;4.85;2.55;;;18.10;1.00;;;19.67;79.42;99262.97;5023315;28;118852;-77
2022/06/17 12:42:16;;;;;;;5.70;3.00;;;18.10;1.00;;;20.03;80.98;99252.31;5025137;28;115195;-76
2022/06/17 12:44:59;;;;;;;5.53;2.75;;;18.40;1.00;;;20.31;80.38;99250.94;5040967;27;129356;-77
2022/06/17 12:47:38;;;;;;;5.40;2.92;;;18.30;1.00;;;20.57;81.25;99246.34;5021238;28;130077;-76
2022/06/17 12:53:20;;;;;;;5.10;2.88;;;18.60;1.00;;;20.85;76.20;99242.19;5022802;28;116054;-74
2022/06/17 12:56:21;;;;;;;7.15;3.08;;;18.40;1.00;;;21.06;79.08;99245.03;5022209;28;129872;-77
2022/06/17 12:59:21;;;;;;;5.60;2.58;;;18.90;1.00;;;21.51;78.08;99242.84;5020435;28;129337;-76
2022/06/17 13:02:01;;;;;;;4.40;2.33;;;19.20;1.00;;;21.80;65.22;99244.84;5021558;28;118701;-78
2022/06/17 13:05:05;;;;;;;4.10;2.28;;;19.30;99.90;;;21.88;63.25;99236.16;5027451;28;114535;-79
2022/06/17 13:07:49;;;;;;;4.32;2.33;;;19.70;99.90;;;21.94;66.20;99238.53;5025797;28;130936;-78
2022/06/17 13:10:43;;;;;;;4.63;2.00;;;19.90;99.90;;;22.24;64.17;99241.66;5024838;28;129835;-76
2022/06/17 13:13:40;;;;;;;3.97;1.85;;;19.90;99.90;;;22.15;61.93;99246.03;5024881;28;117618;-76
2022/06/17 13:16:18;;;;;;;4.00;1.85;;;20.10;99.90;;;22.43;66.52;99242.47;5022847;28;115335;-79
2022/06/17 13:18:54;;;;;;;2.45;1.42;;;20.60;99.90;;;23.00;62.24;99246.22;5022310;28;129930;-77
2022/06/17 13:21:33;;;;;;;1.85;1.20;;;20.90;99.90;;;23.04;55.66;99236.72;5021916;28;130530;-74
2022/06/17 13:24:12;;;;;;;2.50;1.17;;;20.60;99.90;;;23.48;53.91;99242.84;5022563;28;118782;-74
2022/06/17 13:26:52;;;;;;;2.40;1.10;;;20.80;99.90;;;23.53;53.39;99245.19;5020743;28;116626;-75
2022/06/17 13:29:34;;;;;;;1.55;1.10;;;20.70;99.90;;;23.26;51.49;99231.13;5022228;28;130710;-75
2022/06/17 13:32:11;;;;;;;3.08;1.20;;;20.70;99.90;;;23.55;54.41;99228.97;5021815;28;129842;-74
2022/06/17 13:34:45;;;;;;;3.25;1.58;;;21.20;99.90;;;22.31;53.38;99232.59;5022484;28;119239;-72
2022/06/17 13:37:18;;;;;;;3.88;1.63;;;20.70;99.90;;;22.47;56.21;99232.19;5023031;28;116146;-72
2022/06/17 13:39:53;;;;;;;3.30;1.20;;;21.00;99.90;;;22.09;53.66;99229.06;5021985;28;130413;-71
2022/06/17 13:42:24;;;;;;;2.67;1.20;;;20.70;99.90;;;22.38;52.59;99232.59;5030312;28;129465;-73
2022/06/17 13:45:06;;;;;;;3.70;1.40;;;21.00;99.90;;;22.18;52.04;99226.66;5027676;28;119195;-72
2022/06/17 13:47:45;;;;;;;3.88;1.30;;;20.80;99.90;;;22.13;53.76;99229.84;5009060;28;115599;-72
2022/06/17 13:50:37;;;;;;;1.88;1.20;;;20.80;99.90;;;21.80;54.99;99231.84;5021230;28;130001;-72
2022/06/17 13:53:19;;;;;;;2.60;1.27;;;20.60;99.90;;;21.85;51.99;99238.94;5021635;28;129910;-75
2022/06/17 13:55:58;;;;;;;2.70;1.40;;;20.60;99.90;;;22.06;52.01;99229.84;4980673;28;118625;-71
2022/06/17 13:58:37;;;;;;;1.75;1.10;;;20.80;99.90;;;22.43;53.38;99226.66;4981795;28;115221;-71
2022/06/17 14:01:37;;;;;;;3.05;1.63;;;21.30;99.90;;;22.37;52.66;99228.25;4981522;28;130235;-74
2022/06/17 14:04:22;;;;;;;3.65;1.48;;;21.00;99.90;;;22.59;52.60;99237.31;4981320;28;129758;-72
2022/06/17 14:07:06;;;;;;;3.25;1.27;;;21.50;99.90;;;23.02;53.19;99228.03;4981777;28;119245;-73
2022/06/17 14:09:41;;;;;;;2.53;1.25;;;21.80;99.90;;;22.69;50.66;99221.84;4981661;28;115890;-74
2022/06/17 14:12:42;;;;;;;2.53;1.20;;;21.20;99.90;;;23.12;52.97;99227.25;4983234;28;130182;-72
2022/06/17 14:15:18;;;;;;;1.77;1.20;;;21.60;99.90;;;23.27;50.63;99227.94;4979957;28;129799;-73
2022/06/17 14:17:51;;;;;;;1.95;1.38;;;21.70;99.90;;;22.18;54.36;99221.16;4983284;28;118996;-73
2022/06/17 14:20:37;;;;;;;2.35;1.20;;;20.70;99.90;;;21.42;56.37;99220.31;4983354;28;114720;-76
2022/06/17 14:23:16;;;;;;;2.05;1.20;;;20.10;99.90;;;21.12;58.69;99226.94;4980805;28;129816;-72
2022/06/17 14:25:57;;;;;;;2.55;1.10;;;19.90;99.90;;;21.18;55.68;99219.88;4979628;28;129916;-71
2022/06/17 14:28:37;;;;;;;3.47;1.58;;;20.00;99.90;;;20.97;55.82;99228.06;4983151;28;118289;-72
2022/06/17 14:31:31;;;;;;;3.45;1.83;;;19.90;99.90;;;20.74;57.68;99237.44;4981520;28;115962;-74
2022/06/17 14:34:14;;;;;;;3.47;1.50;;;19.90;99.90;;;20.53;56.74;99232.56;4981078;28;129932;-74
2022/06/17 14:36:53;;;;;;;3.72;1.83;;;19.60;99.90;;;19.93;58.87;99239.25;4982969;28;128508;-77
2022/06/17 14:40:01;;;;;;;2.45;1.40;;;19.40;99.90;;;18.89;63.66;99235.41;4980522;28;117704;-74
2022/06/17 14:42:53;;;;;;;5.07;1.63;;;18.40;99.90;;;18.40;72.05;99240.63;4981281;28;115856;-74
2022/06/17 14:45:56;;;;;;;3.88;2.00;;;18.10;99.90;;;17.79;83.68;99250.59;4981129;28;129800;-74
2022/06/17 14:48:38;;;;;;;4.05;1.75;;;17.20;99.90;;;17.30;83.87;99262.28;4980990;28;130913;-74
2022/06/17 14:51:40;;;;;;;5.20;1.40;;;16.60;99.90;;;17.00;84.85;99265.56;4981018;28;118813;-78
2022/06/17 14:54:28;;;;;;;2.95;1.50;;;16.40;1.00;;;21.49;64.87;99264.53;4982310;28;114764;-78
2022/06/17 14:57:16;;;;;;;2.40;1.30;;;18.60;99.90;;;20.69;66.11;99273.63;5023169;28;129504;-78
2022/06/17 14:59:47;;;;;;;7.35;1.33;;;18.30;99.90;;;21.71;60.86;99270.09;5020915;28;129589;-75
2022/06/17 15:02:35;;;;;;;5.40;1.35;;;19.00;99.90;;;19.80;65.47;99274.53;5022763;28;118048;-77
2022/06/17 15:05:08;;;;;;;2.03;1.50;;;17.80;99.90;;;18.80;69.71;99276.88;5020863;28;115151;-75